METAR AND TAF INFORMATION
METAR FOR EDHI
ADDS - METARS form results

(2125 UTC 20 February 2020)
Data provider http://aviationweather.gov/metar/data/
 
METAR text: EDHI 202120Z AUTO 22017KT 8000 2000 // FEW015/// BKN018/// OVC026/// 07/06 Q1002
Conditions at: EDHI (HAMBURG/FINKENWE, DE) observed 2120 UTC 20 February 2020
Temperature: 7.0°C (45°F)
Dewpoint: 6.0°C (43°F) [RH = 93%]
Pressure (altimeter): 29.59 inches Hg (1002.0 mb)
Winds: from the SW (220 degrees) at 20 MPH (17 knots; 8.7 m/s)
Visibility: 5 miles ( 8 km)
Ceiling: 1800 feet AGL
Clouds: few clouds at 1500 feet AGL
broken clouds at 1800 feet AGL
overcast cloud deck at 2600 feet AGL
Weather: no significant weather observed at this time

METAR text: EDHI 202050Z AUTO 21018G29KT 180V240 9999 2800 // FEW015/// BKN018/// OVC024/// 08/06 Q1002
Conditions at: EDHI (HAMBURG/FINKENWE, DE) observed 2050 UTC 20 February 2020
Temperature: 8.0°C (46°F)
Dewpoint: 6.0°C (43°F) [RH = 87%]
Pressure (altimeter): 29.59 inches Hg (1002.0 mb)
Winds: from the SSW (210 degrees) at 21 MPH (18 knots; 9.3 m/s)
gusting to 33 MPH (29 knots; 14.9 m/s)
Visibility: 6 or more miles (10+ km)
Ceiling: 1800 feet AGL
Clouds: few clouds at 1500 feet AGL
broken clouds at 1800 feet AGL
overcast cloud deck at 2400 feet AGL
Weather: no significant weather observed at this time

Forecast for: EDHI (HAMBURG/FINKENWE, DE)
Text: TAF EDHI 201700Z 2018/2021 20013KT 9999 BKN025
Forecast period: 1800 to 2100 UTC 20 February 2020
Forecast type: FROM: standard forecast or significant change
Winds: from the SSW (200 degrees) at 15 MPH (13 knots; 6.7 m/s)
Visibility: 6 or more miles 10+ km)
Ceiling: 2500 feet AGL
Clouds: broken clouds at 2500 feet AGL
Weather: no significant weather forecast for this period
Text: BECMG 2018/2021 22020G35KT RA
Forecast period: 1800 to 2100 UTC 20 February 2020
Forecast type: BECOMING: Conditions expected to become as follows by 2100 UTC 20 February 2020
Winds: from the SW (220 degrees) at 23 MPH (20 knots; 10.3 m/s)
gusting to 40 MPH (35 knots; 18.0 m/s)
Visibility: 6 or more miles 10+ km)
Ceiling: 2500 feet AGL
Clouds: broken clouds at 2500 feet AGL
Weather: RA  (moderate rain)

 AIRPORT MAP

 RUNWAY INFORMATION
Runway 05 Runway length 8629 ft Runway width 148 ft
Runway elevation 16 ft Runway displaced threshold 341 ft Runway heading 52
Runway 23 Runway length 8629 ft Runway width 148 ft
Runway elevation 15 ft Runway displaced threshold 2474 ft Runway heading 232

 AIRPORT FREQUENCIES
Type A/D Name BREMEN RAD Frequency 124.225 MHZ
Type AFIS Name BREMEN INF Frequency 125.1 MHZ
Type ATIS Name ATIS Frequency 123.125 MHZ
Type TWR Name FINKENWERD Frequency 123.25 MHZ

 AIRPORT NEAR NAVIGATION AIDS



Powered by Virtual Airlines Manager [v2.6.2]